HOURLY OBS INDEX

058

North Coast

BALLINA AIRPORT AWS

Site: 058198
Alt: 1.3m
2km E of BALLINA


  Time     Wind        Temp  DP   Baro     Rain since   Rain past  Vis(m), Cloud(base in m), Weather
  local        km/h                         9am  last   hr   10m    
Wed 15:00  NNE 30/ 50  22.8 14.4  1011.1    0.0   0.0   0.0   0.0   10000 
Wed 15:30    N 30/ 43  22.8 15.1  1010.9    0.0   0.0   0.0   0.0   10000 
Wed 15:34    N 30/ 48  22.5 14.6  1010.9    0.0   0.0  ----   0.0   10000 
Wed 16:00    N 30/ 46  22.3 14.4  1010.7    0.0   0.0   0.0   0.0   10000 
Wed 16:30  NNE 30/ 43  21.5 15.1  1010.8    0.0   0.0   0.0   0.0   10000 
Wed 17:00    N 28/ 39  21.0 14.9  1011.1    0.0   0.0   0.0   0.0   10000 
Wed 17:30  NNE 24/ 39  20.2 14.8  1011.3    0.0   0.0   0.0   0.0   10000 
Wed 18:00    N 24/ 33  19.9 15.1  1011.5    0.0   0.0   0.0   0.0   10000 
Wed 18:30    N 22/ 35  19.8 15.0  1011.6    0.0   0.0   0.0   0.0   10000 
Wed 19:00    N 19/ 28  19.6 15.0  1011.9    0.0   0.0   0.0   0.0   10000 
Wed 19:30    N 15/ 20  19.5 14.7  1012.1    0.0   0.0   0.0   0.0   10000 
Wed 20:00  NNE 17/ 28  19.2 14.9  1011.9    0.0   0.0   0.0   0.0   10000 
Wed 20:30  NNE 19/ 24  19.3 14.6  1012.0    0.0   0.0   0.0   0.0   10000 

BYRON BAY (CAPE BYRON AWS)

Site: 058216
Alt: 95.0m
24km NNE of BALLINA


  Time     Wind        Temp  DP   Baro     Rain since   Rain past  Vis(m), Cloud(base in m), Weather
  local        km/h                         9am  last   hr   10m    
Wed 15:00    N 41/ 59  20.9 14.8  1012.1    0.0   0.0   0.0   0.0   ----- 
Wed 15:30    N 43/ 54  20.7 14.1  1011.9    0.0   0.0   0.0   0.0   ----- 
Wed 15:54    N 35/ 56  20.6 14.7  1011.9    0.0   0.0  ----   0.0   ----- 
Wed 16:00    N 39/ 56  20.6 14.7  1011.8    0.0   0.0   0.0   0.0   ----- 
Wed 16:30    N 39/ 54  20.3 14.9  1012.1    0.0   0.0   0.0   0.0   ----- 
Wed 16:36    N 35/ 54  20.3 15.1  1012.2    0.0   0.0  ----   0.0   ----- 
Wed 17:00    N 33/ 50  20.1 14.9  1012.4    0.0   0.0   0.0   0.0   ----- 
Wed 17:08    N 33/ 52  20.1 15.1  1012.5    0.0   0.0  ----   0.0   ----- 
Wed 17:30    N 33/ 46  19.7 15.4  1012.6    0.0   0.0   0.0   0.0   ----- 
Wed 18:00    N 33/ 45  19.6 15.3  1012.6    0.0   0.0   0.0   0.0   ----- 
Wed 18:01    N 33/ 52  19.7 15.4  1012.6    0.0   0.0  ----   0.0   ----- 
Wed 18:30    N 33/ 46  19.5 15.8  1012.8    0.0   0.0   0.0   0.0   ----- 
Wed 19:00    N 30/ 39  19.4 16.2  1012.9    0.0   0.0   0.0   0.0   ----- 
Wed 19:30    N 30/ 43  19.3 16.0  1013.1    0.0   0.0   0.0   0.0   ----- 
Wed 20:00    N 26/ 39  19.2 15.7  1013.1    0.0   0.0   0.0   0.0   ----- 
Wed 20:30    N 30/ 43  19.3 15.8  1013.3    0.0   0.0   0.0   0.0   ----- 

CASINO AIRPORT AWS

Site: 058208
Alt: 20.9m
3km S of CASINO


  Time     Wind        Temp  DP   Baro     Rain since   Rain past  Vis(m), Cloud(base in m), Weather
  local        km/h                         9am  last   hr   10m    
Wed 15:00    N 24/ 33  28.9 10.1  1009.8    0.0   0.0   0.0   0.0   ----- 
Wed 15:30    N 24/ 33  28.7  9.9  1009.6    0.0   0.0   0.0   0.0   ----- 
Wed 16:00    N 24/ 32  28.1  9.4  1009.6    0.0   0.0   0.0   0.0   ----- 
Wed 16:30    N 26/ 37  27.7  9.5  1009.7    0.0   0.0   0.0   0.0   ----- 
Wed 17:00    N 22/ 32  26.5  9.4  1009.8    0.0   0.0   0.0   0.0   ----- 
Wed 17:30    N 17/ 24  25.3  9.6  1010.1    0.0   0.0   0.0   0.0   ----- 
Wed 18:00    N 13/ 22  23.6  9.9  1010.4    0.0   0.0   0.0   0.0   ----- 
Wed 18:30    N 13/ 19  23.1 10.9  1010.9    0.0   0.0   0.0   0.0   ----- 
Wed 19:00    N  9/ 17  22.2 11.9  1011.3    0.0   0.0   0.0   0.0   ----- 
Wed 19:30  NNW 15/ 22  22.3 11.7  1011.4    0.0   0.0   0.0   0.0   ----- 
Wed 20:00  NNW 19/ 24  22.3 11.7  1011.5    0.0   0.0   0.0   0.0   ----- 
Wed 20:30  NNW 20/ 28  21.6 11.3  1011.7    0.0   0.0   0.0   0.0   ----- 

EVANS HEAD RAAF BOMBING RANGE AWS

Site: 058212
Alt: 62.5m
41km SSW of BALLINA


  Time     Wind        Temp  DP   Baro     Rain since   Rain past  Vis(m), Cloud(base in m), Weather
  local        km/h                         9am  last   hr   10m    
Wed 15:00  NNE 22/ 33  25.2 15.5  1010.2    0.0   0.0   0.0   0.0   ----- 
Wed 15:30  NNE 22/ 35  24.0 14.4  1010.0    0.0   0.0   0.0   0.0   ----- 
Wed 16:00  NNE 24/ 39  23.4 14.4  1009.9    0.0   0.0   0.0   0.0   ----- 
Wed 16:30  NNE 22/ 35  22.6 14.7  1010.1    0.0   0.0   0.0   0.0   ----- 
Wed 17:00  NNE 22/ 33  21.1 14.3  1010.3    0.0   0.0   0.0   0.0   ----- 
Wed 17:30  NNE 15/ 22  20.1 14.2  1010.5    0.0   0.0   0.0   0.0   ----- 
Wed 18:00    N 15/ 26  19.4 14.0  1010.8    0.0   0.0   0.0   0.0   ----- 
Wed 18:30    N 20/ 32  19.2 14.2  1010.8    0.0   0.0   0.0   0.0   ----- 
Wed 19:00    N 19/ 30  18.4 14.1  1011.2    0.0   0.0   0.0   0.0   ----- 
Wed 19:30    N 19/ 32  18.2 14.3  1011.4    0.0   0.0   0.0   0.0   ----- 
Wed 20:00    N 19/ 28  17.9 14.4  1011.1    0.0   0.0   0.0   0.0   ----- 
Wed 20:30    N 19/ 26  17.7 14.2  1011.3    0.0   0.0   0.0   0.0   ----- 

GRAFTON AIRPORT AWS

Site: 058161
Alt: 25.1m
13km SE of GRAFTON


  Time     Wind        Temp  DP   Baro     Rain since   Rain past  Vis(m), Cloud(base in m), Weather
  local        km/h                         9am  last   hr   10m    
Wed 15:00   NE 20/ 30  26.5----  1009.5    0.0   0.0   0.0   0.0   10000 
Wed 15:30   NE 20/ 30  26.2----  1009.4    0.0   0.0   0.0   0.0   10000 
Wed 16:00  ENE 17/ 22  25.7----  1009.3    0.0   0.0   0.0   0.0   10000 
Wed 16:30  ENE 17/ 22  24.7----  1009.6    0.0   0.0   0.0   0.0   10000 
Wed 17:00  ENE 11/ 19  23.4----  1009.8    0.0   0.0   0.0   0.0   10000|SC3150 
Wed 17:30  ENE 13/ 19  22.2----  1010.1    0.0   0.0   0.0   0.0   10000 
Wed 18:00   NE 13/ 15  20.8----  1010.4    0.0   0.0   0.0   0.0   10000 
Wed 18:30  ENE  4/ 11  19.8----  1010.8    0.0   0.0   0.0   0.0   10000 
Wed 19:00  ENE  9/ 13  19.3----  1010.7    0.0   0.0   0.0   0.0   10000 
Wed 19:30  ENE  7/ 11  18.7----  1010.9    0.0   0.0   0.0   0.0   10000 
Wed 20:00    C  0/  6  18.2----  1011.1    0.0   0.0   0.0   0.0   10000|SC3000 
Wed 20:30  SSW  9/ 13  17.7----  1011.5    0.0   0.0   0.0   0.0   10000|SC3000 

GRAFTON RESEARCH STN

Site: 058077
Alt: 25.0m
7km NNE of GRAFTON


  Time     Wind        Temp  DP   Baro     Rain since   Rain past  Vis(m), Cloud(base in m), Weather
  local        km/h                         9am  last   hr   10m    
Wed 15:00  ENE 11/ 24  29.4 12.8  ------    0.0   0.0   0.0   0.0   ----- 
Wed 15:30  ENE 15/ 24  27.2 14.9  ------    0.0   0.0   0.0   0.0   ----- 
Wed 16:00  ENE 17/ 24  26.8 14.5  ------    0.0   0.0   0.0   0.0   ----- 
Wed 16:30    E 13/ 20  24.9 14.7  ------    0.0   0.0   0.0   0.0   ----- 
Wed 17:00  ENE 13/ 19  24.2 15.1  ------    0.0   0.0   0.0   0.0   ----- 
Wed 17:30  ENE  7/ 13  23.4 15.5  ------    0.0   0.0   0.0   0.0   ----- 
Wed 18:00  ESE  7/ 11  20.9 15.0  ------    0.0   0.0   0.0   0.0   ----- 
Wed 18:30    E  9/ 11  20.0 15.4  ------    0.0   0.0   0.0   0.0   ----- 
Wed 19:00  ENE  9/ 11  19.2 15.3  ------    0.0   0.0   0.0   0.0   ----- 
Wed 19:30  ENE  6/  9  18.7 15.0  ------    0.0   0.0   0.0   0.0   ----- 
Wed 20:00  WSW  6/  7  17.1 14.7  ------   ----  ----  ----   0.0   ----- 
Wed 20:30  SSW  4/  7  16.8 14.8  ------   ----  ----  ----   0.0   ----- 

LISMORE AIRPORT AWS

Site: 058214
Alt: 9.2m
3km SW of LISMORE


  Time     Wind        Temp  DP   Baro     Rain since   Rain past  Vis(m), Cloud(base in m), Weather
  local        km/h                         9am  last   hr   10m    
Wed 15:00    N 20/ 30  29.1 10.3  1009.8    0.0   0.0   0.0   0.0   10000 
Wed 15:30    N 20/ 28  29.4 10.5  1009.6    0.0   0.0   0.0   0.0   10000 
Wed 16:00    N 17/ 24  29.0 10.6  1009.7    0.0   0.0   0.0   0.0   10000 
Wed 16:30  ENE 22/ 30  26.0 13.2  1009.7    0.0   0.0   0.0   0.0   10000 
Wed 17:00   NE 22/ 30  25.0 13.2  1010.0    0.0   0.0   0.0   0.0   10000 
Wed 17:30   NE 24/ 33  23.5 13.1  1010.2    0.0   0.0   0.0   0.0   10000 
Wed 18:00  NNE 20/ 26  22.4 13.2  1010.6    0.0   0.0   0.0   0.0   10000 
Wed 18:30  NNE 20/ 26  21.3 13.2  1010.9    0.0   0.0   0.0   0.0   10000 
Wed 19:00  NNE 19/ 24  20.5 13.2  1011.3    0.0   0.0   0.0   0.0   10000 
Wed 19:30  NNE 17/ 20  19.7 13.4  1011.4    0.0   0.0   0.0   0.0   10000 
Wed 20:00    N 19/ 22  19.0 13.4  1011.4    0.0   0.0   0.0   0.0   10000 
Wed 20:30    N 17/ 20  18.6 13.2  1011.5    0.0   0.0   0.0   0.0   10000 

YAMBA PILOT STATION

Site: 058012
Alt: 27.4m
50km NE of GRAFTON


  Time     Wind        Temp  DP   Baro     Rain since   Rain past  Vis(m), Cloud(base in m), Weather
  local        km/h                         9am  last   hr   10m    
Wed 15:00  NNE 17/ 30  23.0 17.0  1010.1    0.0   0.0   0.0   0.0   ----- 
Wed 15:30    N 13/ 24  22.4 16.7  1009.9    0.0   0.0   0.0   0.0   ----- 
Wed 16:00  NNE 15/ 26  21.6 16.8  1009.8    0.0   0.0   0.0   0.0   ----- 
Wed 16:30  NNE 17/ 28  21.0 16.8  1010.0    0.0   0.0   0.0   0.0   ----- 
Wed 17:00  NNE 17/ 30  20.2 16.8  1010.2    0.0   0.0   0.0   0.0   ----- 
Wed 17:30  NNE 13/ 24  19.5 16.5  1010.3    0.0   0.0   0.0   0.0   ----- 
Wed 18:00  NNE 15/ 26  19.2 17.0  1010.4    0.0   0.0   0.0   0.0   ----- 
Wed 18:30  NNE 13/ 22  19.0 17.0  1010.8    0.0   0.0   0.0   0.0   ----- 
Wed 19:00    N 11/ 20  19.0 17.1  1010.8    0.0   0.0   0.0   0.0   ----- 
Wed 19:30    N 13/ 24  18.9 17.0  1010.9    0.0   0.0   0.0   0.0   ----- 
Wed 20:00    N 13/ 22  18.7 17.0  1011.0    0.0   0.0   0.0   0.0   ----- 
Wed 20:30  NNE 11/ 26  18.6 17.1  1011.3    0.0   0.0   0.0   0.0   -----